createdAt,value
2022-08-27T00:03:13.538Z,21.67
2022-08-27T00:08:15.488Z,16.67
2022-08-27T00:13:17.982Z,17.13
2022-08-27T00:18:22.731Z,21.73
2022-08-27T00:23:24.776Z,28.00
2022-08-27T00:28:28.680Z,29.70
2022-08-27T00:33:30.772Z,30.05
2022-08-27T00:38:32.659Z,33.08
2022-08-27T00:44:04.672Z,39.60
2022-08-27T00:49:32.626Z,38.67
2022-08-27T00:54:34.803Z,41.40
2022-08-27T00:59:37.097Z,40.40
2022-08-27T01:04:41.561Z,39.53
2022-08-27T01:09:46.173Z,37.92
2022-08-27T01:14:48.140Z,41.05
2022-08-27T01:19:54.720Z,38.50
2022-08-27T01:25:00.208Z,38.70
2022-08-27T01:30:02.764Z,36.92
2022-08-27T01:35:08.150Z,38.55
2022-08-27T01:40:11.244Z,39.67
2022-08-27T01:45:20.083Z,38.47
2022-08-27T01:50:25.814Z,39.42
2022-08-27T01:55:27.864Z,40.03
2022-08-27T02:00:33.838Z,40.30
2022-08-27T02:05:39.326Z,40.47
2022-08-27T02:10:48.419Z,40.95
2022-08-27T02:15:50.393Z,39.60
2022-08-27T02:20:52.403Z,38.50
2022-08-27T02:25:54.290Z,40.50
2022-08-27T02:30:56.203Z,40.70
2022-08-27T02:35:58.098Z,37.38
2022-08-27T02:40:59.973Z,38.85
2022-08-27T02:46:02.982Z,37.10
2022-08-27T02:51:06.293Z,34.53
2022-08-27T02:56:08.283Z,43.15
2022-08-27T03:01:11.156Z,38.20
2022-08-27T03:06:15.728Z,38.95
2022-08-27T03:11:17.632Z,39.03
2022-08-27T03:16:19.992Z,40.55
2022-08-27T03:21:25.992Z,42.22
2022-08-27T03:26:32.022Z,43.25
2022-08-27T03:31:34.453Z,41.92
2022-08-27T03:36:36.345Z,42.88
2022-08-27T03:41:43.859Z,38.67
2022-08-27T03:46:57.216Z,40.05
2022-08-27T03:51:59.121Z,34.55
2022-08-27T03:57:01.030Z,38.05
2022-08-27T04:02:03.321Z,38.42
2022-08-27T04:07:05.380Z,41.95
2022-08-27T04:12:07.473Z,37.22
2022-08-27T04:17:09.336Z,36.40
2022-08-27T04:22:11.212Z,35.72
2022-08-27T04:27:15.210Z,35.55
2022-08-27T04:32:17.295Z,39.00
2022-08-27T04:37:23.278Z,33.00
2022-08-27T04:42:27.671Z,33.03
2022-08-27T04:47:29.688Z,38.30
2022-08-27T04:52:31.548Z,37.67
2022-08-27T04:57:34.979Z,37.55
2022-08-27T05:02:36.906Z,34.88
2022-08-27T05:07:39.145Z,32.70
2022-08-27T05:12:41.009Z,31.13
2022-08-27T05:17:44.221Z,35.78
2022-08-27T05:22:46.804Z,33.58
2022-08-27T05:27:48.725Z,27.52
2022-08-27T05:32:50.601Z,35.33
2022-08-27T05:37:52.502Z,29.20
2022-08-27T05:42:55.657Z,30.48
2022-08-27T05:47:58.783Z,29.98
2022-08-27T05:53:00.670Z,29.85
2022-08-27T05:58:02.542Z,33.08
2022-08-27T06:03:04.536Z,32.17
2022-08-27T06:08:06.947Z,30.92
2022-08-27T06:13:09.057Z,33.78
2022-08-27T06:18:13.660Z,33.47
2022-08-27T06:23:15.571Z,40.53
2022-08-27T06:28:21.463Z,37.08
2022-08-27T06:33:23.343Z,41.38
2022-08-27T06:38:25.263Z,36.10
2022-08-27T06:43:27.294Z,39.72
2022-08-27T06:48:32.064Z,36.97
2022-08-27T06:53:36.407Z,30.67
2022-08-27T06:58:38.440Z,32.33
2022-08-27T07:03:40.932Z,31.15
2022-08-27T07:08:43.802Z,29.27
2022-08-27T07:13:56.426Z,30.17
2022-08-27T07:19:02.359Z,31.33
2022-08-27T07:24:06.707Z,29.55
2022-08-27T07:29:10.512Z,31.15
2022-08-27T07:34:12.444Z,33.25
2022-08-27T07:39:16.799Z,36.70
2022-08-27T07:44:30.986Z,37.10
2022-08-27T07:49:37.741Z,30.98
2022-08-27T07:54:41.151Z,34.83
2022-08-27T07:59:43.372Z,34.47
2022-08-27T08:04:45.602Z,31.58
2022-08-27T08:09:47.498Z,28.98
2022-08-27T08:14:49.527Z,30.38
2022-08-27T08:20:15.752Z,28.23
2022-08-27T08:25:16.842Z,27.67
2022-08-27T08:30:18.804Z,28.50
2022-08-27T08:35:20.986Z,29.10
2022-08-27T08:40:32.312Z,29.50
2022-08-27T08:45:37.244Z,29.52
2022-08-27T08:51:05.759Z,27.63
2022-08-27T08:56:15.457Z,24.27
2022-08-27T09:01:20.906Z,21.73
2022-08-27T09:06:41.454Z,21.73
2022-08-27T09:11:51.611Z,20.38
2022-08-27T09:16:56.588Z,22.42
2022-08-27T09:22:11.069Z,20.25
2022-08-27T09:27:14.982Z,19.40
2022-08-27T09:32:16.919Z,18.35
2022-08-27T09:37:34.039Z,20.75
2022-08-27T09:42:43.246Z,17.13
2022-08-27T09:48:12.908Z,18.45
2022-08-27T09:53:36.000Z,18.65
2022-08-27T09:58:43.843Z,23.90
2022-08-27T10:03:45.818Z,23.65
2022-08-27T10:08:50.610Z,21.85
2022-08-27T10:14:02.313Z,22.65
2022-08-27T10:19:33.164Z,20.85
2022-08-27T10:24:51.995Z,24.95
2022-08-27T10:30:20.558Z,24.05
2022-08-27T10:35:48.069Z,23.15
2022-08-27T10:41:07.521Z,22.38
2022-08-27T10:46:28.393Z,21.23
2022-08-27T10:51:59.634Z,23.70
2022-08-27T10:57:31.423Z,18.98
2022-08-27T11:02:40.195Z,20.95
2022-08-27T11:07:47.787Z,20.48
2022-08-27T11:12:54.199Z,18.35
2022-08-27T11:18:08.281Z,21.48
2022-08-27T11:23:19.454Z,18.70
2022-08-27T11:28:29.986Z,20.52
2022-08-27T11:34:10.340Z,25.08
2022-08-27T11:39:32.706Z,21.35
2022-08-27T11:44:40.983Z,25.80
2022-08-27T11:49:54.540Z,21.98
2022-08-27T11:55:25.177Z,20.55
2022-08-27T12:00:26.970Z,24.00
2022-08-27T12:05:45.109Z,23.83
2022-08-27T12:11:24.465Z,21.55
2022-08-27T12:16:42.034Z,18.05
2022-08-27T12:21:50.056Z,14.32
2022-08-27T12:27:01.688Z,5.82
2022-08-27T12:32:25.319Z,5.50
2022-08-27T12:37:31.510Z,6.45
2022-08-27T12:42:33.623Z,8.20
2022-08-27T12:47:42.669Z,8.32
2022-08-27T12:53:16.542Z,12.05
2022-08-27T12:58:32.610Z,14.27
2022-08-27T13:03:38.537Z,14.10
2022-08-27T13:08:40.391Z,19.17
2022-08-27T13:13:42.274Z,20.15
2022-08-27T13:18:48.656Z,19.80
2022-08-27T13:24:00.677Z,19.60
2022-08-27T13:29:03.992Z,20.55
2022-08-27T13:34:07.176Z,19.40
2022-08-27T13:39:09.250Z,20.15
2022-08-27T13:44:20.484Z,25.38
2022-08-27T13:49:25.690Z,24.80
2022-08-27T13:54:27.946Z,24.80
2022-08-27T13:59:31.126Z,23.77
2022-08-27T14:04:37.905Z,24.67
2022-08-27T14:09:55.138Z,21.15
2022-08-27T14:14:57.963Z,21.33
2022-08-27T14:20:01.791Z,23.63
2022-08-27T14:25:04.339Z,18.55
2022-08-27T14:30:09.312Z,19.17
2022-08-27T14:35:12.116Z,15.05
2022-08-27T14:40:14.854Z,15.80
2022-08-27T14:45:16.852Z,17.40
2022-08-27T14:50:18.803Z,23.10
2022-08-27T14:55:20.795Z,24.85
2022-08-27T15:00:22.682Z,26.75
2022-08-27T15:05:26.376Z,16.08
2022-08-27T15:10:28.353Z,9.90
2022-08-27T15:15:30.269Z,9.65
2022-08-27T15:20:32.605Z,12.98
2022-08-27T15:25:35.187Z,17.60
2022-08-27T15:30:38.035Z,20.55
2022-08-27T15:35:40.007Z,20.70
2022-08-27T15:40:42.022Z,20.05
2022-08-27T15:45:44.476Z,19.42
2022-08-27T15:50:46.472Z,19.50
2022-08-27T15:55:48.672Z,17.17
2022-08-27T16:00:54.621Z,18.70
2022-08-27T16:06:05.312Z,21.85
2022-08-27T16:11:07.191Z,18.95
2022-08-27T16:16:09.229Z,19.10
2022-08-27T16:21:11.151Z,16.95
2022-08-27T16:26:14.100Z,17.05
2022-08-27T16:31:16.032Z,19.05
2022-08-27T16:36:19.774Z,25.83
2022-08-27T16:41:23.092Z,26.98
2022-08-27T16:46:25.467Z,25.17
2022-08-27T16:51:34.953Z,28.33
2022-08-27T16:56:37.914Z,27.67
2022-08-27T17:01:42.009Z,34.95
2022-08-27T17:06:47.818Z,34.92
2022-08-27T17:11:54.952Z,33.50
2022-08-27T17:16:56.813Z,34.20
2022-08-27T17:21:59.912Z,31.85
2022-08-27T17:27:01.917Z,11.38
2022-08-27T17:32:07.098Z,9.27
2022-08-27T17:37:08.982Z,10.00
2022-08-27T17:42:10.819Z,9.50
2022-08-27T17:47:12.752Z,8.75
2022-08-27T17:52:15.492Z,12.98
2022-08-27T17:57:25.692Z,11.65
2022-08-27T18:02:37.272Z,12.18
2022-08-27T18:07:40.660Z,14.30
2022-08-27T18:12:44.101Z,15.68
2022-08-27T18:17:46.034Z,13.48
2022-08-27T18:22:50.028Z,14.13
2022-08-27T18:27:54.656Z,12.68
2022-08-27T18:32:56.537Z,13.57
2022-08-27T18:37:59.001Z,12.93
2022-08-27T18:43:00.855Z,10.13
2022-08-27T18:48:05.794Z,10.55
2022-08-27T18:53:07.716Z,10.02
2022-08-27T18:58:10.420Z,9.73
2022-08-27T19:03:17.862Z,9.90
2022-08-27T19:08:21.943Z,13.30
2022-08-27T19:13:24.051Z,14.43
2022-08-27T19:18:29.012Z,20.30
2022-08-27T19:23:31.312Z,20.95
2022-08-27T19:28:40.252Z,19.95
2022-08-27T19:33:43.202Z,19.85
2022-08-27T19:38:46.002Z,25.77
2022-08-27T19:43:47.883Z,23.70
2022-08-27T19:48:49.769Z,24.70
2022-08-27T19:53:51.636Z,26.23
2022-08-27T19:58:57.619Z,25.33
2022-08-27T20:04:02.001Z,24.30
2022-08-27T20:09:08.476Z,26.10
2022-08-27T20:14:10.436Z,26.05
2022-08-27T20:19:15.654Z,25.25
2022-08-27T20:24:17.733Z,23.48
2022-08-27T20:29:32.301Z,24.55
2022-08-27T20:34:35.044Z,24.15
2022-08-27T20:39:36.998Z,25.15
2022-08-27T20:44:39.030Z,27.52
2022-08-27T20:49:41.671Z,27.52
2022-08-27T20:54:43.584Z,29.00
2022-08-27T21:00:04.003Z,28.33
2022-08-27T21:05:10.748Z,31.10
2022-08-27T21:10:12.630Z,32.67
2022-08-27T21:15:14.612Z,29.38
2022-08-27T21:20:16.572Z,28.88
2022-08-27T21:25:18.584Z,26.60
2022-08-27T21:30:21.563Z,23.25
2022-08-27T21:35:27.827Z,24.27
2022-08-27T21:40:30.321Z,22.17
2022-08-27T21:45:32.195Z,20.80
2022-08-27T21:50:34.096Z,21.45
2022-08-27T21:55:35.961Z,21.08
2022-08-27T22:00:43.123Z,21.88
2022-08-27T22:05:47.265Z,19.55
2022-08-27T22:10:52.907Z,20.38
2022-08-27T22:15:54.816Z,21.17
2022-08-27T22:20:58.868Z,25.92
2022-08-27T22:26:00.744Z,26.63
2022-08-27T22:31:03.297Z,29.42
2022-08-27T22:36:05.468Z,31.65
2022-08-27T22:41:07.372Z,34.63
2022-08-27T22:46:09.660Z,36.00
2022-08-27T22:51:12.135Z,35.55
2022-08-27T22:56:14.125Z,37.53
2022-08-27T23:01:21.382Z,38.47
2022-08-27T23:06:23.261Z,40.65
2022-08-27T23:11:25.150Z,40.03
2022-08-27T23:16:28.222Z,38.97
2022-08-27T23:21:30.252Z,32.47
2022-08-27T23:26:50.631Z,32.70
2022-08-27T23:31:52.937Z,31.13
2022-08-27T23:36:56.247Z,29.00
2022-08-27T23:41:58.190Z,27.90
2022-08-27T23:47:01.183Z,30.27
2022-08-27T23:52:04.167Z,30.35
2022-08-27T23:57:06.041Z,30.83
